sensor_id;sensor_type;location;lat;lon;timestamp;pressure;altitude;pressure_sealevel;temperature;humidity
3150;BME280;32503;47.748;8.960;2024-02-15T00:01:05;97439.25;;;10.04;65.94
3150;BME280;32503;47.748;8.960;2024-02-15T00:03:32;97429.81;;;9.98;65.57
3150;BME280;32503;47.748;8.960;2024-02-15T00:06:00;97431.84;;;9.89;66.03
3150;BME280;32503;47.748;8.960;2024-02-15T00:08:29;97423.50;;;9.81;66.10
3150;BME280;32503;47.748;8.960;2024-02-15T00:10:56;97430.78;;;9.81;66.50
3150;BME280;32503;47.748;8.960;2024-02-15T00:13:23;97431.47;;;9.78;65.36
3150;BME280;32503;47.748;8.960;2024-02-15T00:15:50;97429.78;;;9.73;65.44
3150;BME280;32503;47.748;8.960;2024-02-15T00:18:19;97430.44;;;9.70;64.91
3150;BME280;32503;47.748;8.960;2024-02-15T00:20:46;97434.16;;;9.65;65.12
3150;BME280;32503;47.748;8.960;2024-02-15T00:23:13;97451.00;;;9.62;65.45
3150;BME280;32503;47.748;8.960;2024-02-15T00:25:42;97450.44;;;9.57;65.02
3150;BME280;32503;47.748;8.960;2024-02-15T00:28:10;97451.97;;;9.45;65.06
3150;BME280;32503;47.748;8.960;2024-02-15T00:30:37;97452.16;;;9.40;65.79
3150;BME280;32503;47.748;8.960;2024-02-15T00:33:04;97450.59;;;9.39;65.89
3150;BME280;32503;47.748;8.960;2024-02-15T00:35:33;97456.53;;;9.33;65.61
3150;BME280;32503;47.748;8.960;2024-02-15T00:38:00;97445.72;;;9.33;65.43
3150;BME280;32503;47.748;8.960;2024-02-15T00:40:27;97451.19;;;9.24;66.11
3150;BME280;32503;47.748;8.960;2024-02-15T00:42:54;97451.84;;;9.21;65.90
3150;BME280;32503;47.748;8.960;2024-02-15T00:45:21;97451.06;;;9.20;65.94
3150;BME280;32503;47.748;8.960;2024-02-15T00:47:48;97445.09;;;9.15;65.52
3150;BME280;32503;47.748;8.960;2024-02-15T00:50:15;97451.59;;;9.14;65.73
3150;BME280;32503;47.748;8.960;2024-02-15T00:52:43;97436.28;;;9.05;66.08
3150;BME280;32503;47.748;8.960;2024-02-15T00:55:11;97439.00;;;9.05;65.53
3150;BME280;32503;47.748;8.960;2024-02-15T00:57:38;97446.16;;;9.01;65.67
3150;BME280;32503;47.748;8.960;2024-02-15T01:00:06;97452.19;;;8.98;65.21
3150;BME280;32503;47.748;8.960;2024-02-15T01:02:35;97458.25;;;8.95;65.28
3150;BME280;32503;47.748;8.960;2024-02-15T01:05:03;97455.16;;;8.84;65.52
3150;BME280;32503;47.748;8.960;2024-02-15T01:07:30;97460.94;;;8.74;65.67
3150;BME280;32503;47.748;8.960;2024-02-15T01:09:58;97457.78;;;8.72;65.65
3150;BME280;32503;47.748;8.960;2024-02-15T01:12:25;97450.66;;;8.67;65.75
3150;BME280;32503;47.748;8.960;2024-02-15T01:14:52;97455.78;;;8.60;65.71
3150;BME280;32503;47.748;8.960;2024-02-15T01:17:19;97455.50;;;8.53;66.05
3150;BME280;32503;47.748;8.960;2024-02-15T01:19:45;97454.75;;;8.52;65.78
3150;BME280;32503;47.748;8.960;2024-02-15T01:22:12;97459.31;;;8.52;65.63
3150;BME280;32503;47.748;8.960;2024-02-15T01:24:39;97460.44;;;8.51;65.38
3150;BME280;32503;47.748;8.960;2024-02-15T01:27:07;97457.78;;;8.42;65.77
3150;BME280;32503;47.748;8.960;2024-02-15T01:29:35;97456.34;;;8.36;65.66
3150;BME280;32503;47.748;8.960;2024-02-15T01:32:03;97451.28;;;8.34;65.83
3150;BME280;32503;47.748;8.960;2024-02-15T01:34:30;97459.91;;;8.28;66.02
3150;BME280;32503;47.748;8.960;2024-02-15T01:36:58;97458.81;;;8.20;65.77
3150;BME280;32503;47.748;8.960;2024-02-15T01:39:25;97451.72;;;8.15;65.80
3150;BME280;32503;47.748;8.960;2024-02-15T01:41:52;97455.69;;;8.09;65.79
3150;BME280;32503;47.748;8.960;2024-02-15T01:44:23;97456.69;;;8.05;65.81
3150;BME280;32503;47.748;8.960;2024-02-15T01:46:51;97466.78;;;8.08;65.58
3150;BME280;32503;47.748;8.960;2024-02-15T01:49:19;97456.50;;;8.01;65.63
3150;BME280;32503;47.748;8.960;2024-02-15T01:51:49;97448.28;;;7.97;66.25
3150;BME280;32503;47.748;8.960;2024-02-15T01:54:18;97451.63;;;7.94;66.12
3150;BME280;32503;47.748;8.960;2024-02-15T01:56:46;97447.06;;;7.86;66.04
3150;BME280;32503;47.748;8.960;2024-02-15T01:59:15;97448.38;;;7.80;65.99
3150;BME280;32503;47.748;8.960;2024-02-15T02:01:45;97447.09;;;7.77;65.93
3150;BME280;32503;47.748;8.960;2024-02-15T02:04:12;97433.66;;;7.69;66.31
3150;BME280;32503;47.748;8.960;2024-02-15T02:06:39;97436.16;;;7.83;65.90
3150;BME280;32503;47.748;8.960;2024-02-15T02:09:10;97434.25;;;7.83;65.94
3150;BME280;32503;47.748;8.960;2024-02-15T02:11:38;97432.00;;;7.85;65.04
3150;BME280;32503;47.748;8.960;2024-02-15T02:14:05;97435.84;;;7.75;65.45
3150;BME280;32503;47.748;8.960;2024-02-15T02:16:32;97431.13;;;7.64;65.57
3150;BME280;32503;47.748;8.960;2024-02-15T02:19:02;97426.09;;;7.53;66.22
3150;BME280;32503;47.748;8.960;2024-02-15T02:21:33;97431.16;;;7.46;66.15
3150;BME280;32503;47.748;8.960;2024-02-15T02:24:03;97428.31;;;7.51;66.20
3150;BME280;32503;47.748;8.960;2024-02-15T02:26:34;97428.00;;;7.44;66.67
3150;BME280;32503;47.748;8.960;2024-02-15T02:29:02;97423.91;;;7.38;67.02
3150;BME280;32503;47.748;8.960;2024-02-15T02:31:33;97422.97;;;7.34;66.62
3150;BME280;32503;47.748;8.960;2024-02-15T02:34:00;97400.84;;;7.19;67.01
3150;BME280;32503;47.748;8.960;2024-02-15T02:36:27;97413.81;;;7.26;66.70
3150;BME280;32503;47.748;8.960;2024-02-15T02:38:55;97408.44;;;7.17;66.47
3150;BME280;32503;47.748;8.960;2024-02-15T02:41:26;97402.75;;;7.10;67.07
3150;BME280;32503;47.748;8.960;2024-02-15T02:43:55;97416.97;;;7.19;66.61
3150;BME280;32503;47.748;8.960;2024-02-15T02:46:23;97417.59;;;7.16;66.91
3150;BME280;32503;47.748;8.960;2024-02-15T02:48:50;97410.50;;;7.12;66.64
3150;BME280;32503;47.748;8.960;2024-02-15T02:51:17;97404.81;;;7.05;67.46
3150;BME280;32503;47.748;8.960;2024-02-15T02:53:44;97403.22;;;7.03;67.75
3150;BME280;32503;47.748;8.960;2024-02-15T02:56:11;97402.44;;;7.03;67.37
3150;BME280;32503;47.748;8.960;2024-02-15T02:58:38;97404.66;;;7.01;67.59
3150;BME280;32503;47.748;8.960;2024-02-15T03:01:09;97400.84;;;7.02;66.84
3150;BME280;32503;47.748;8.960;2024-02-15T03:03:36;97398.31;;;6.97;67.99
3150;BME280;32503;47.748;8.960;2024-02-15T03:06:04;97400.38;;;6.82;68.17
3150;BME280;32503;47.748;8.960;2024-02-15T03:08:31;97408.75;;;6.72;68.14
3150;BME280;32503;47.748;8.960;2024-02-15T03:10:59;97391.22;;;6.75;67.85
3150;BME280;32503;47.748;8.960;2024-02-15T03:13:26;97392.47;;;6.77;68.01
3150;BME280;32503;47.748;8.960;2024-02-15T03:15:54;97402.44;;;6.77;67.73
3150;BME280;32503;47.748;8.960;2024-02-15T03:18:22;97400.22;;;6.70;67.41
3150;BME280;32503;47.748;8.960;2024-02-15T03:20:49;97402.75;;;6.67;67.73
3150;BME280;32503;47.748;8.960;2024-02-15T03:23:16;97401.50;;;6.64;68.23
3150;BME280;32503;47.748;8.960;2024-02-15T03:25:43;97400.69;;;6.63;67.66
3150;BME280;32503;47.748;8.960;2024-02-15T03:28:10;97403.22;;;6.60;67.56
3150;BME280;32503;47.748;8.960;2024-02-15T03:30:37;97394.84;;;6.61;67.45
3150;BME280;32503;47.748;8.960;2024-02-15T03:33:04;97395.66;;;6.62;67.47
3150;BME280;32503;47.748;8.960;2024-02-15T03:35:34;97399.91;;;6.63;67.94
3150;BME280;32503;47.748;8.960;2024-02-15T03:38:01;97403.88;;;6.66;67.26
3150;BME280;32503;47.748;8.960;2024-02-15T03:40:28;97399.75;;;6.68;67.70
3150;BME280;32503;47.748;8.960;2024-02-15T03:42:56;97399.75;;;6.68;66.80
3150;BME280;32503;47.748;8.960;2024-02-15T03:45:23;97393.91;;;6.66;67.44
3150;BME280;32503;47.748;8.960;2024-02-15T03:47:51;97393.75;;;6.62;66.56
3150;BME280;32503;47.748;8.960;2024-02-15T03:50:18;97395.16;;;6.60;66.97
3150;BME280;32503;47.748;8.960;2024-02-15T03:52:49;97393.09;;;6.48;66.51
3150;BME280;32503;47.748;8.960;2024-02-15T03:55:17;97393.09;;;6.48;67.27
3150;BME280;32503;47.748;8.960;2024-02-15T03:57:44;97396.09;;;6.47;67.43
3150;BME280;32503;47.748;8.960;2024-02-15T04:00:13;97401.16;;;6.48;67.53
3150;BME280;32503;47.748;8.960;2024-02-15T04:02:41;97397.84;;;6.42;66.85
3150;BME280;32503;47.748;8.960;2024-02-15T04:05:09;97389.63;;;6.39;67.10
3150;BME280;32503;47.748;8.960;2024-02-15T04:07:37;97396.25;;;6.41;67.25
3150;BME280;32503;47.748;8.960;2024-02-15T04:10:07;97395.63;;;6.44;66.85
3150;BME280;32503;47.748;8.960;2024-02-15T04:12:34;97392.13;;;6.35;67.08
3150;BME280;32503;47.748;8.960;2024-02-15T04:15:02;97397.97;;;6.29;68.24
3150;BME280;32503;47.748;8.960;2024-02-15T04:17:37;97397.63;;;6.21;67.74
3150;BME280;32503;47.748;8.960;2024-02-15T04:20:06;97397.94;;;6.20;68.72
3150;BME280;32503;47.748;8.960;2024-02-15T04:22:33;97391.16;;;6.22;68.13
3150;BME280;32503;47.748;8.960;2024-02-15T04:25:02;97398.28;;;6.27;68.16
3150;BME280;32503;47.748;8.960;2024-02-15T04:27:31;97400.19;;;6.26;68.54
3150;BME280;32503;47.748;8.960;2024-02-15T04:29:58;97394.66;;;6.23;68.21
3150;BME280;32503;47.748;8.960;2024-02-15T04:32:25;97391.59;;;6.16;67.32
3150;BME280;32503;47.748;8.960;2024-02-15T04:34:52;97392.25;;;6.13;68.29
3150;BME280;32503;47.748;8.960;2024-02-15T04:37:19;97386.41;;;6.11;67.34
3150;BME280;32503;47.748;8.960;2024-02-15T04:39:46;97395.22;;;6.11;67.87
3150;BME280;32503;47.748;8.960;2024-02-15T04:42:13;97390.97;;;6.10;67.95
3150;BME280;32503;47.748;8.960;2024-02-15T04:44:42;97386.06;;;6.12;67.26
3150;BME280;32503;47.748;8.960;2024-02-15T04:47:10;97393.34;;;6.12;67.94
3150;BME280;32503;47.748;8.960;2024-02-15T04:49:36;97390.66;;;6.12;67.97
3150;BME280;32503;47.748;8.960;2024-02-15T04:52:05;97393.03;;;6.13;68.36
3150;BME280;32503;47.748;8.960;2024-02-15T04:54:32;97389.69;;;6.07;68.01
3150;BME280;32503;47.748;8.960;2024-02-15T04:56:59;97385.56;;;6.01;68.17
3150;BME280;32503;47.748;8.960;2024-02-15T04:59:26;97387.59;;;5.96;68.39
3150;BME280;32503;47.748;8.960;2024-02-15T05:01:57;97362.56;;;5.78;67.64
3150;BME280;32503;47.748;8.960;2024-02-15T05:04:24;97391.69;;;5.93;67.90
3150;BME280;32503;47.748;8.960;2024-02-15T05:06:52;97388.50;;;5.91;67.78
3150;BME280;32503;47.748;8.960;2024-02-15T05:09:19;97396.88;;;5.89;67.92
3150;BME280;32503;47.748;8.960;2024-02-15T05:11:48;97394.03;;;5.86;67.41
3150;BME280;32503;47.748;8.960;2024-02-15T05:14:18;97389.88;;;5.80;67.49
3150;BME280;32503;47.748;8.960;2024-02-15T05:16:46;97389.19;;;5.65;68.19
3150;BME280;32503;47.748;8.960;2024-02-15T05:19:16;97382.56;;;5.72;68.59
3150;BME280;32503;47.748;8.960;2024-02-15T05:21:44;97353.47;;;5.47;68.24
3150;BME280;32503;47.748;8.960;2024-02-15T05:24:12;97376.44;;;5.71;67.86
3150;BME280;32503;47.748;8.960;2024-02-15T05:26:40;97388.44;;;5.74;67.56
3150;BME280;32503;47.748;8.960;2024-02-15T05:29:09;97391.75;;;5.70;67.52
3150;BME280;32503;47.748;8.960;2024-02-15T05:31:37;97377.16;;;5.54;67.23
3150;BME280;32503;47.748;8.960;2024-02-15T05:34:06;97376.19;;;5.50;68.42
3150;BME280;32503;47.748;8.960;2024-02-15T05:36:38;97391.00;;;5.47;67.76
3150;BME280;32503;47.748;8.960;2024-02-15T05:39:06;97392.69;;;5.43;67.92
3150;BME280;32503;47.748;8.960;2024-02-15T05:41:33;97381.66;;;5.45;67.72
3150;BME280;32503;47.748;8.960;2024-02-15T05:44:00;97367.91;;;5.38;67.42
3150;BME280;32503;47.748;8.960;2024-02-15T05:46:30;97379.63;;;5.50;67.94
3150;BME280;32503;47.748;8.960;2024-02-15T05:48:57;97388.50;;;5.51;68.46
3150;BME280;32503;47.748;8.960;2024-02-15T05:51:24;97387.34;;;5.43;68.91
3150;BME280;32503;47.748;8.960;2024-02-15T05:53:53;97381.19;;;5.43;69.08
3150;BME280;32503;47.748;8.960;2024-02-15T05:56:24;97376.13;;;5.41;68.99
3150;BME280;32503;47.748;8.960;2024-02-15T05:58:51;97375.03;;;5.42;69.24
3150;BME280;32503;47.748;8.960;2024-02-15T06:01:18;97380.88;;;5.44;69.47
3150;BME280;32503;47.748;8.960;2024-02-15T06:03:46;97378.19;;;5.44;68.77
3150;BME280;32503;47.748;8.960;2024-02-15T06:06:13;97380.22;;;5.39;68.60
3150;BME280;32503;47.748;8.960;2024-02-15T06:08:40;97379.25;;;5.35;68.61
3150;BME280;32503;47.748;8.960;2024-02-15T06:11:09;97385.72;;;5.34;68.63
3150;BME280;32503;47.748;8.960;2024-02-15T06:13:36;97373.66;;;5.22;68.10
3150;BME280;32503;47.748;8.960;2024-02-15T06:16:04;97364.22;;;5.25;68.47
3150;BME280;32503;47.748;8.960;2024-02-15T06:18:35;97374.75;;;5.21;68.75
3150;BME280;32503;47.748;8.960;2024-02-15T06:21:03;97372.88;;;5.22;68.82
3150;BME280;32503;47.748;8.960;2024-02-15T06:23:31;97372.22;;;5.16;68.17
3150;BME280;32503;47.748;8.960;2024-02-15T06:25:59;97375.97;;;5.15;68.82
3150;BME280;32503;47.748;8.960;2024-02-15T06:28:30;97373.63;;;5.13;68.65
3150;BME280;32503;47.748;8.960;2024-02-15T06:31:14;97373.63;;;5.13;69.08
3150;BME280;32503;47.748;8.960;2024-02-15T06:34:01;97370.00;;;5.18;68.64
3150;BME280;32503;47.748;8.960;2024-02-15T06:36:47;97379.94;;;5.18;68.74
3150;BME280;32503;47.748;8.960;2024-02-15T06:39:31;97385.84;;;5.28;68.15
3150;BME280;32503;47.748;8.960;2024-02-15T06:42:06;97380.19;;;5.30;67.92
3150;BME280;32503;47.748;8.960;2024-02-15T06:44:35;97387.47;;;5.38;67.64
3150;BME280;32503;47.748;8.960;2024-02-15T06:47:02;97384.97;;;5.42;67.50
3150;BME280;32503;47.748;8.960;2024-02-15T06:49:29;97387.47;;;5.38;67.37
3150;BME280;32503;47.748;8.960;2024-02-15T06:51:56;97391.56;;;5.36;68.24
3150;BME280;32503;47.748;8.960;2024-02-15T06:54:24;97384.97;;;5.42;67.96
3150;BME280;32503;47.748;8.960;2024-02-15T06:56:51;97391.78;;;5.48;68.30
3150;BME280;32503;47.748;8.960;2024-02-15T06:59:20;97396.75;;;5.63;68.29
3150;BME280;32503;47.748;8.960;2024-02-15T07:01:49;97392.69;;;5.75;67.42
3150;BME280;32503;47.748;8.960;2024-02-15T07:04:18;97395.06;;;6.07;67.74
3150;BME280;32503;47.748;8.960;2024-02-15T07:06:45;97390.75;;;6.90;66.59
3150;BME280;32503;47.748;8.960;2024-02-15T07:09:13;97395.03;;;8.12;64.81
3150;BME280;32503;47.748;8.960;2024-02-15T07:11:43;97397.53;;;9.10;61.08
3150;BME280;32503;47.748;8.960;2024-02-15T07:14:12;97387.59;;;9.93;59.06
3150;BME280;32503;47.748;8.960;2024-02-15T07:16:39;97392.63;;;10.69;55.76
3150;BME280;32503;47.748;8.960;2024-02-15T07:19:07;97393.88;;;11.56;53.81
3150;BME280;32503;47.748;8.960;2024-02-15T07:21:35;97387.13;;;12.45;51.14
3150;BME280;32503;47.748;8.960;2024-02-15T07:24:05;97373.19;;;13.64;48.32
3150;BME280;32503;47.748;8.960;2024-02-15T07:26:32;97378.38;;;14.46;45.44
3150;BME280;32503;47.748;8.960;2024-02-15T07:29:00;97385.69;;;15.29;43.33
3150;BME280;32503;47.748;8.960;2024-02-15T07:31:28;97386.28;;;15.90;41.63
3150;BME280;32503;47.748;8.960;2024-02-15T07:33:56;97371.94;;;16.48;40.91
3150;BME280;32503;47.748;8.960;2024-02-15T07:36:25;97371.03;;;16.34;40.54
3150;BME280;32503;47.748;8.960;2024-02-15T07:38:54;97367.25;;;15.56;40.99
3150;BME280;32503;47.748;8.960;2024-02-15T07:41:23;97367.81;;;14.67;43.00
3150;BME280;32503;47.748;8.960;2024-02-15T07:43:51;97359.59;;;14.10;43.69
3150;BME280;32503;47.748;8.960;2024-02-15T07:46:21;97368.94;;;13.86;45.19
3150;BME280;32503;47.748;8.960;2024-02-15T07:48:49;97364.19;;;14.06;44.60
3150;BME280;32503;47.748;8.960;2024-02-15T07:51:18;97359.88;;;13.78;45.13
3150;BME280;32503;47.748;8.960;2024-02-15T07:53:47;97359.81;;;13.75;45.73
3150;BME280;32503;47.748;8.960;2024-02-15T07:56:16;97361.09;;;14.08;45.52
3150;BME280;32503;47.748;8.960;2024-02-15T07:58:47;97347.63;;;14.41;44.66
3150;BME280;32503;47.748;8.960;2024-02-15T08:01:16;97344.47;;;14.66;43.70
3150;BME280;32503;47.748;8.960;2024-02-15T08:03:43;97342.81;;;14.88;43.10
3150;BME280;32503;47.748;8.960;2024-02-15T08:06:11;97334.66;;;14.88;43.45
3150;BME280;32503;47.748;8.960;2024-02-15T08:08:39;97336.31;;;14.96;42.96
3150;BME280;32503;47.748;8.960;2024-02-15T08:11:08;97333.47;;;15.23;42.88
3150;BME280;32503;47.748;8.960;2024-02-15T08:13:43;97332.19;;;15.51;42.31
3150;BME280;32503;47.748;8.960;2024-02-15T08:16:10;97329.63;;;15.69;42.56
3150;BME280;32503;47.748;8.960;2024-02-15T08:18:38;97329.81;;;15.87;42.18
3150;BME280;32503;47.748;8.960;2024-02-15T08:21:05;97328.38;;;16.07;42.16
3150;BME280;32503;47.748;8.960;2024-02-15T08:23:32;97321.84;;;16.19;41.45
3150;BME280;32503;47.748;8.960;2024-02-15T08:25:59;97326.53;;;16.19;41.82
3150;BME280;32503;47.748;8.960;2024-02-15T08:28:28;97313.72;;;16.26;42.24
3150;BME280;32503;47.748;8.960;2024-02-15T08:30:56;97310.97;;;16.23;42.26
3150;BME280;32503;47.748;8.960;2024-02-15T08:33:24;97306.25;;;16.16;42.65
3150;BME280;32503;47.748;8.960;2024-02-15T08:35:54;97302.28;;;16.03;42.61
3150;BME280;32503;47.748;8.960;2024-02-15T08:38:22;97302.22;;;15.96;43.29
3150;BME280;32503;47.748;8.960;2024-02-15T08:40:49;97295.91;;;15.88;43.50
3150;BME280;32503;47.748;8.960;2024-02-15T08:43:16;97286.78;;;15.66;43.91
3150;BME280;32503;47.748;8.960;2024-02-15T08:45:44;97253.34;;;15.28;44.77
3150;BME280;32503;47.748;8.960;2024-02-15T08:48:12;97277.78;;;15.62;44.75
3150;BME280;32503;47.748;8.960;2024-02-15T08:50:39;97280.50;;;15.62;44.69
3150;BME280;32503;47.748;8.960;2024-02-15T08:53:07;97277.88;;;15.72;44.88
3150;BME280;32503;47.748;8.960;2024-02-15T08:55:34;97278.78;;;15.87;45.16
3150;BME280;32503;47.748;8.960;2024-02-15T08:58:03;97284.34;;;16.02;44.89
3150;BME280;32503;47.748;8.960;2024-02-15T09:00:30;97273.47;;;16.09;44.72
3150;BME280;32503;47.748;8.960;2024-02-15T09:02:59;97271.94;;;16.11;44.99
3150;BME280;32503;47.748;8.960;2024-02-15T09:05:26;97272.03;;;16.29;44.96
3150;BME280;32503;47.748;8.960;2024-02-15T09:07:54;97265.47;;;16.41;44.18
3150;BME280;32503;47.748;8.960;2024-02-15T09:10:21;97264.56;;;16.16;44.25
3150;BME280;32503;47.748;8.960;2024-02-15T09:12:49;97266.16;;;16.24;45.23
3150;BME280;32503;47.748;8.960;2024-02-15T09:15:16;97255.69;;;16.33;44.11
3150;BME280;32503;47.748;8.960;2024-02-15T09:17:44;97260.44;;;16.54;44.15
3150;BME280;32503;47.748;8.960;2024-02-15T09:20:14;97248.81;;;16.72;43.73
3150;BME280;32503;47.748;8.960;2024-02-15T09:22:42;97250.97;;;16.26;43.89
3150;BME280;32503;47.748;8.960;2024-02-15T09:25:11;97246.16;;;16.02;44.42
3150;BME280;32503;47.748;8.960;2024-02-15T09:27:39;97250.47;;;16.06;44.95
3150;BME280;32503;47.748;8.960;2024-02-15T09:30:07;97246.34;;;16.38;44.82
3150;BME280;32503;47.748;8.960;2024-02-15T09:32:35;97244.06;;;16.54;44.12
3150;BME280;32503;47.748;8.960;2024-02-15T09:35:03;97244.44;;;16.45;43.49
3150;BME280;32503;47.748;8.960;2024-02-15T09:37:34;97240.13;;;16.44;44.05
3150;BME280;32503;47.748;8.960;2024-02-15T09:40:03;97226.84;;;16.39;43.81
3150;BME280;32503;47.748;8.960;2024-02-15T09:42:33;97237.06;;;16.60;43.84
3150;BME280;32503;47.748;8.960;2024-02-15T09:45:01;97228.50;;;16.65;44.03
3150;BME280;32503;47.748;8.960;2024-02-15T09:47:34;97231.25;;;16.69;43.31
3150;BME280;32503;47.748;8.960;2024-02-15T09:50:02;97235.63;;;16.95;43.22
3150;BME280;32503;47.748;8.960;2024-02-15T09:52:31;97226.31;;;17.32;42.44
3150;BME280;32503;47.748;8.960;2024-02-15T09:55:03;97222.34;;;16.86;41.91
3150;BME280;32503;47.748;8.960;2024-02-15T09:57:30;97224.63;;;16.70;42.82
3150;BME280;32503;47.748;8.960;2024-02-15T09:59:59;97214.06;;;16.54;42.57
3150;BME280;32503;47.748;8.960;2024-02-15T10:02:26;97218.28;;;16.41;43.57
3150;BME280;32503;47.748;8.960;2024-02-15T10:04:54;97197.81;;;15.99;44.09
3150;BME280;32503;47.748;8.960;2024-02-15T10:07:23;97218.34;;;15.75;45.05
3150;BME280;32503;47.748;8.960;2024-02-15T10:09:50;97208.63;;;15.81;44.85
3150;BME280;32503;47.748;8.960;2024-02-15T10:12:19;97219.56;;;15.84;44.62
3150;BME280;32503;47.748;8.960;2024-02-15T10:14:49;97222.09;;;15.59;44.22
3150;BME280;32503;47.748;8.960;2024-02-15T10:17:20;97225.41;;;15.34;44.28
3150;BME280;32503;47.748;8.960;2024-02-15T10:20:03;97213.94;;;15.63;45.28
3150;BME280;32503;47.748;8.960;2024-02-15T10:22:31;97220.44;;;15.99;44.50
3150;BME280;32503;47.748;8.960;2024-02-15T10:25:11;97217.72;;;16.03;42.71
3150;BME280;32503;47.748;8.960;2024-02-15T10:27:41;97203.47;;;15.16;43.38
3150;BME280;32503;47.748;8.960;2024-02-15T10:30:17;97212.31;;;14.65;44.57
3150;BME280;32503;47.748;8.960;2024-02-15T10:32:44;97203.41;;;14.38;45.44
3150;BME280;32503;47.748;8.960;2024-02-15T10:35:19;97201.25;;;13.90;46.86
3150;BME280;32503;47.748;8.960;2024-02-15T10:37:48;97201.44;;;14.04;46.59
3150;BME280;32503;47.748;8.960;2024-02-15T10:40:18;97192.59;;;13.81;46.73
3150;BME280;32503;47.748;8.960;2024-02-15T10:42:47;97188.16;;;13.69;47.58
3150;BME280;32503;47.748;8.960;2024-02-15T10:45:15;97182.75;;;13.99;47.43
3150;BME280;32503;47.748;8.960;2024-02-15T10:47:45;97171.03;;;13.95;47.58
3150;BME280;32503;47.748;8.960;2024-02-15T10:50:13;97126.06;;;13.98;47.02
3150;BME280;32503;47.748;8.960;2024-02-15T10:52:51;97184.38;;;14.68;47.15
3150;BME280;32503;47.748;8.960;2024-02-15T10:55:34;97171.97;;;14.74;46.03
3150;BME280;32503;47.748;8.960;2024-02-15T10:58:06;97174.09;;;14.92;46.08
3150;BME280;32503;47.748;8.960;2024-02-15T11:00:34;97166.50;;;15.15;46.17
3150;BME280;32503;47.748;8.960;2024-02-15T11:03:04;97162.06;;;15.48;45.99
3150;BME280;32503;47.748;8.960;2024-02-15T11:05:33;97152.63;;;15.90;45.48
3150;BME280;32503;47.748;8.960;2024-02-15T11:08:04;97151.94;;;16.15;44.68
3150;BME280;32503;47.748;8.960;2024-02-15T11:10:32;97148.84;;;16.13;44.01
3150;BME280;32503;47.748;8.960;2024-02-15T11:13:00;97139.09;;;16.19;44.25
3150;BME280;32503;47.748;8.960;2024-02-15T11:15:45;97140.31;;;16.25;43.93
3150;BME280;32503;47.748;8.960;2024-02-15T11:18:43;97121.22;;;16.33;43.81
3150;BME280;32503;47.748;8.960;2024-02-15T11:21:11;97131.06;;;16.70;43.93
3150;BME280;32503;47.748;8.960;2024-02-15T11:23:37;97130.31;;;16.98;43.52
3150;BME280;32503;47.748;8.960;2024-02-15T11:26:09;97129.13;;;16.99;42.37
3150;BME280;32503;47.748;8.960;2024-02-15T11:28:40;97128.38;;;17.05;42.72
3150;BME280;32503;47.748;8.960;2024-02-15T11:31:54;97123.66;;;17.28;42.54
3150;BME280;32503;47.748;8.960;2024-02-15T11:34:46;97124.41;;;17.53;42.30
3150;BME280;32503;47.748;8.960;2024-02-15T11:37:54;97113.78;;;17.80;42.25
3150;BME280;32503;47.748;8.960;2024-02-15T11:40:25;97103.22;;;17.97;41.66
3150;BME280;32503;47.748;8.960;2024-02-15T11:42:53;97101.63;;;18.03;41.17
3150;BME280;32503;47.748;8.960;2024-02-15T11:45:21;97097.28;;;18.16;41.37
3150;BME280;32503;47.748;8.960;2024-02-15T11:47:51;97102.31;;;18.25;40.24
3150;BME280;32503;47.748;8.960;2024-02-15T11:50:19;97092.16;;;18.22;41.04
3150;BME280;32503;47.748;8.960;2024-02-15T11:52:48;97096.44;;;18.27;41.01
3150;BME280;32503;47.748;8.960;2024-02-15T11:55:19;97087.19;;;17.99;40.37
3150;BME280;32503;47.748;8.960;2024-02-15T11:57:57;97082.16;;;17.87;41.08
3150;BME280;32503;47.748;8.960;2024-02-15T12:00:32;97078.66;;;17.86;40.95
3150;BME280;32503;47.748;8.960;2024-02-15T12:03:19;97076.28;;;17.88;41.41
3150;BME280;32503;47.748;8.960;2024-02-15T12:06:04;97074.44;;;17.49;40.65
3150;BME280;32503;47.748;8.960;2024-02-15T12:08:52;97085.06;;;17.04;41.89
3150;BME280;32503;47.748;8.960;2024-02-15T12:11:37;97026.94;;;16.75;42.62
3150;BME280;32503;47.748;8.960;2024-02-15T12:14:22;97074.50;;;17.02;42.53
3150;BME280;32503;47.748;8.960;2024-02-15T12:17:08;97070.59;;;17.18;42.17
3150;BME280;32503;47.748;8.960;2024-02-15T12:19:55;97081.88;;;17.38;42.42
3150;BME280;32503;47.748;8.960;2024-02-15T12:22:26;97071.69;;;17.60;42.80
3150;BME280;32503;47.748;8.960;2024-02-15T12:24:59;97068.53;;;17.69;41.26
3150;BME280;32503;47.748;8.960;2024-02-15T12:27:27;97065.41;;;17.67;41.31
3150;BME280;32503;47.748;8.960;2024-02-15T12:29:56;97068.66;;;17.08;41.58
3150;BME280;32503;47.748;8.960;2024-02-15T12:32:24;97066.69;;;16.76;42.43
3150;BME280;32503;47.748;8.960;2024-02-15T12:34:51;97064.75;;;16.69;42.62
3150;BME280;32503;47.748;8.960;2024-02-15T12:37:20;97054.56;;;16.26;43.72
3150;BME280;32503;47.748;8.960;2024-02-15T12:39:50;97040.53;;;16.39;44.16
3150;BME280;32503;47.748;8.960;2024-02-15T12:42:17;97044.84;;;16.43;43.16
3150;BME280;32503;47.748;8.960;2024-02-15T12:44:46;97046.38;;;16.23;43.41
3150;BME280;32503;47.748;8.960;2024-02-15T12:47:23;97035.06;;;16.17;43.54
3150;BME280;32503;47.748;8.960;2024-02-15T12:49:50;97034.69;;;16.15;43.72
3150;BME280;32503;47.748;8.960;2024-02-15T12:52:36;97033.50;;;16.27;43.40
3150;BME280;32503;47.748;8.960;2024-02-15T12:55:10;97025.75;;;16.25;43.13
3150;BME280;32503;47.748;8.960;2024-02-15T12:57:37;97018.72;;;16.21;43.37
3150;BME280;32503;47.748;8.960;2024-02-15T13:00:08;97020.28;;;16.40;43.61
3150;BME280;32503;47.748;8.960;2024-02-15T13:02:40;97019.50;;;16.46;42.71
3150;BME280;32503;47.748;8.960;2024-02-15T13:05:07;97006.22;;;16.30;42.89
3150;BME280;32503;47.748;8.960;2024-02-15T13:07:37;96991.81;;;16.16;43.01
3150;BME280;32503;47.748;8.960;2024-02-15T13:10:04;96996.50;;;16.44;43.15
3150;BME280;32503;47.748;8.960;2024-02-15T13:12:33;96994.53;;;16.55;43.01
3150;BME280;32503;47.748;8.960;2024-02-15T13:15:03;96982.84;;;16.58;43.00
3150;BME280;32503;47.748;8.960;2024-02-15T13:17:31;96982.47;;;16.60;43.07
3150;BME280;32503;47.748;8.960;2024-02-15T13:19:59;96989.50;;;16.57;43.20
3150;BME280;32503;47.748;8.960;2024-02-15T13:22:31;96981.69;;;16.66;43.31
3150;BME280;32503;47.748;8.960;2024-02-15T13:25:01;96982.84;;;16.76;43.16
3150;BME280;32503;47.748;8.960;2024-02-15T13:27:29;96970.75;;;16.95;43.25
3150;BME280;32503;47.748;8.960;2024-02-15T13:29:57;96973.47;;;17.06;41.89